createdAt,value
2018-11-25T00:01:45.435Z,9.20
2018-11-25T00:04:19.332Z,8.40
2018-11-25T00:06:53.413Z,9.53
2018-11-25T00:09:27.449Z,8.93
2018-11-25T00:12:01.625Z,8.90
2018-11-25T00:14:35.932Z,10.03
2018-11-25T00:17:09.866Z,11.97
2018-11-25T00:19:43.719Z,10.40
2018-11-25T00:22:17.822Z,10.03
2018-11-25T00:24:51.808Z,10.07
2018-11-25T00:27:25.693Z,9.70
2018-11-25T00:29:59.689Z,8.73
2018-11-25T00:32:33.629Z,9.00
2018-11-25T00:35:09.332Z,9.80
2018-11-25T00:37:48.123Z,9.20
2018-11-25T00:40:17.568Z,9.73
2018-11-25T00:42:51.529Z,8.63
2018-11-25T00:45:25.578Z,8.53
2018-11-25T00:47:59.895Z,9.37
2018-11-25T00:50:33.998Z,11.77
2018-11-25T00:53:08.124Z,10.63
2018-11-25T00:55:42.089Z,8.87
2018-11-25T00:58:16.168Z,8.00
2018-11-25T01:00:49.928Z,7.33
2018-11-25T01:03:23.878Z,8.67
2018-11-25T01:05:58.006Z,8.27
2018-11-25T01:08:31.745Z,7.83
2018-11-25T01:11:06.049Z,8.50
2018-11-25T01:13:39.903Z,8.00
2018-11-25T01:16:13.893Z,7.53
2018-11-25T01:18:47.735Z,7.77
2018-11-25T01:21:21.654Z,7.40
2018-11-25T01:23:55.603Z,7.83
2018-11-25T01:26:29.483Z,7.87
2018-11-25T01:29:03.591Z,7.57
2018-11-25T01:31:37.639Z,7.83
2018-11-25T01:34:11.724Z,8.40
2018-11-25T01:36:45.860Z,8.07
2018-11-25T01:39:19.898Z,9.37
2018-11-25T01:41:54.377Z,8.67
2018-11-25T01:44:28.634Z,8.93
2018-11-25T01:47:02.673Z,8.40
2018-11-25T01:49:36.625Z,8.90
2018-11-25T01:52:10.569Z,8.37
2018-11-25T01:54:44.539Z,8.07
2018-11-25T01:57:18.746Z,8.67
2018-11-25T01:59:52.884Z,8.97
2018-11-25T02:02:26.742Z,9.40
2018-11-25T02:05:00.878Z,8.87
2018-11-25T02:07:35.168Z,9.90
2018-11-25T02:10:12.703Z,9.00
2018-11-25T02:12:46.782Z,8.93
2018-11-25T02:15:21.008Z,10.03
2018-11-25T02:17:55.132Z,9.70
2018-11-25T02:20:28.964Z,9.43
2018-11-25T02:23:03.264Z,9.83
2018-11-25T02:25:37.548Z,9.93
2018-11-25T02:28:11.909Z,11.10
2018-11-25T02:30:45.754Z,10.63
2018-11-25T02:33:19.980Z,11.13
2018-11-25T02:36:00.578Z,10.90
2018-11-25T02:38:34.577Z,10.77
2018-11-25T02:41:08.541Z,10.13
2018-11-25T02:43:42.621Z,10.27
2018-11-25T02:46:16.579Z,10.70
2018-11-25T02:48:51.694Z,10.40
2018-11-25T02:51:24.718Z,10.30
2018-11-25T02:53:58.718Z,10.67
2018-11-25T02:56:32.684Z,10.77
2018-11-25T02:59:06.829Z,11.20
2018-11-25T03:01:40.986Z,10.73
2018-11-25T03:04:15.419Z,11.80
2018-11-25T03:06:49.514Z,11.43
2018-11-25T03:09:23.484Z,12.07
2018-11-25T03:11:57.845Z,12.40
2018-11-25T03:14:31.799Z,11.20
2018-11-25T03:17:05.753Z,12.20
2018-11-25T03:19:39.542Z,12.07
2018-11-25T03:22:13.850Z,12.57
2018-11-25T03:24:47.875Z,12.03
2018-11-25T03:27:21.780Z,12.10
2018-11-25T03:29:55.775Z,12.13
2018-11-25T03:32:29.695Z,12.60
2018-11-25T03:35:03.574Z,12.70
2018-11-25T03:37:37.730Z,12.37
2018-11-25T03:40:13.536Z,11.97
2018-11-25T03:42:47.384Z,12.30
2018-11-25T03:45:21.684Z,12.50
2018-11-25T03:47:55.664Z,11.97
2018-11-25T03:50:29.411Z,11.63
2018-11-25T03:53:03.359Z,13.20
2018-11-25T03:55:37.384Z,13.20
2018-11-25T03:58:11.293Z,12.63
2018-11-25T04:00:45.238Z,13.03
2018-11-25T04:03:19.605Z,12.20
2018-11-25T04:05:53.528Z,12.57
2018-11-25T04:08:27.684Z,12.37
2018-11-25T04:11:01.726Z,13.20
2018-11-25T04:13:35.761Z,12.73
2018-11-25T04:16:09.993Z,13.47
2018-11-25T04:18:43.990Z,13.90
2018-11-25T04:21:18.416Z,14.93
2018-11-25T04:23:52.275Z,15.87
2018-11-25T04:26:26.199Z,15.37
2018-11-25T04:29:00.194Z,14.33
2018-11-25T04:31:34.291Z,15.17
2018-11-25T04:34:08.440Z,13.97
2018-11-25T04:36:42.174Z,14.63
2018-11-25T04:39:16.333Z,14.60
2018-11-25T04:41:50.307Z,14.93
2018-11-25T04:44:24.137Z,16.00
2018-11-25T04:46:58.009Z,17.13
2018-11-25T04:49:31.958Z,16.50
2018-11-25T04:52:05.791Z,17.10
2018-11-25T04:54:39.778Z,17.90
2018-11-25T04:57:13.811Z,18.60
2018-11-25T04:59:47.914Z,17.67
2018-11-25T05:02:22.245Z,18.47
2018-11-25T05:04:55.938Z,18.43
2018-11-25T05:07:29.756Z,20.43
2018-11-25T05:10:04.904Z,19.93
2018-11-25T05:12:39.017Z,19.47
2018-11-25T05:15:17.237Z,18.97
2018-11-25T05:17:51.109Z,19.80
2018-11-25T05:20:32.315Z,19.37
2018-11-25T05:23:06.274Z,19.67
2018-11-25T05:25:40.498Z,19.60
2018-11-25T05:28:14.257Z,20.30
2018-11-25T05:30:48.110Z,19.90
2018-11-25T05:33:22.107Z,19.27
2018-11-25T05:35:55.888Z,21.23
2018-11-25T05:38:29.989Z,20.90
2018-11-25T05:41:04.170Z,21.00
2018-11-25T05:43:38.149Z,22.00
2018-11-25T05:46:11.839Z,23.37
2018-11-25T05:48:45.762Z,23.23
2018-11-25T05:51:19.704Z,24.50
2018-11-25T05:53:53.591Z,26.27
2018-11-25T05:56:27.705Z,26.00
2018-11-25T05:59:01.706Z,24.53
2018-11-25T06:01:35.740Z,25.13
2018-11-25T06:04:09.635Z,26.03
2018-11-25T06:06:43.590Z,26.77
2018-11-25T06:09:17.605Z,26.97
2018-11-25T06:11:51.623Z,26.60
2018-11-25T06:14:25.705Z,26.40
2018-11-25T06:16:59.728Z,26.63
2018-11-25T06:19:33.789Z,25.17
2018-11-25T06:22:07.559Z,25.67
2018-11-25T06:24:41.614Z,24.83
2018-11-25T06:27:15.561Z,24.13
2018-11-25T06:29:49.460Z,24.57
2018-11-25T06:32:23.256Z,23.50
2018-11-25T06:34:57.189Z,23.07
2018-11-25T06:37:31.322Z,21.63
2018-11-25T06:40:10.010Z,23.63
2018-11-25T06:42:44.003Z,23.13
2018-11-25T06:45:22.331Z,21.07
2018-11-25T06:47:57.278Z,23.30
2018-11-25T06:50:31.942Z,23.67
2018-11-25T06:53:05.914Z,23.57
2018-11-25T06:55:39.842Z,22.83
2018-11-25T06:58:13.751Z,21.57
2018-11-25T07:00:47.904Z,21.97
2018-11-25T07:03:21.773Z,21.23
2018-11-25T07:05:55.643Z,19.83
2018-11-25T07:08:29.574Z,21.30
2018-11-25T07:11:03.374Z,20.10
2018-11-25T07:13:37.384Z,18.63
2018-11-25T07:16:11.400Z,16.90
2018-11-25T07:18:45.289Z,16.70
2018-11-25T07:21:19.304Z,16.37
2018-11-25T07:23:53.394Z,15.57
2018-11-25T07:26:27.644Z,16.90
2018-11-25T07:29:01.474Z,15.40
2018-11-25T07:31:35.942Z,15.17
2018-11-25T07:34:09.832Z,14.80
2018-11-25T07:36:43.732Z,13.87
2018-11-25T07:39:17.726Z,13.20
2018-11-25T07:41:51.584Z,13.23
2018-11-25T07:44:25.586Z,14.37
2018-11-25T07:46:59.714Z,13.33
2018-11-25T07:49:34.109Z,13.03
2018-11-25T07:52:08.651Z,12.30
2018-11-25T07:54:42.685Z,12.73
2018-11-25T07:57:16.730Z,12.77
2018-11-25T07:59:50.489Z,13.40
2018-11-25T08:02:24.323Z,12.50
2018-11-25T08:04:58.372Z,12.30
2018-11-25T08:07:32.741Z,11.63
2018-11-25T08:10:08.785Z,12.00
2018-11-25T08:12:43.135Z,11.17
2018-11-25T08:15:18.209Z,11.80
2018-11-25T08:17:52.038Z,11.50
2018-11-25T08:20:26.258Z,11.63
2018-11-25T08:23:00.188Z,11.03
2018-11-25T08:25:33.987Z,12.00
2018-11-25T08:28:08.195Z,11.97
2018-11-25T08:30:42.429Z,10.70
2018-11-25T08:33:16.219Z,10.63
2018-11-25T08:35:54.111Z,11.20
2018-11-25T08:38:28.040Z,11.70
2018-11-25T08:41:02.165Z,11.67
2018-11-25T08:43:36.025Z,12.33
2018-11-25T08:46:10.093Z,12.30
2018-11-25T08:48:44.765Z,11.07
2018-11-25T08:51:18.726Z,12.10
2018-11-25T08:53:52.814Z,11.90
2018-11-25T08:56:26.805Z,12.03
2018-11-25T08:59:00.751Z,12.23
2018-11-25T09:01:34.573Z,12.07
2018-11-25T09:04:08.384Z,11.77
2018-11-25T09:06:42.928Z,12.00
2018-11-25T09:09:16.887Z,11.67
2018-11-25T09:11:50.869Z,11.43
2018-11-25T09:14:24.693Z,12.47
2018-11-25T09:16:58.728Z,11.53
2018-11-25T09:19:32.520Z,12.50
2018-11-25T09:22:06.536Z,11.97
2018-11-25T09:24:40.533Z,12.03
2018-11-25T09:27:14.977Z,13.17
2018-11-25T09:29:48.858Z,12.60
2018-11-25T09:32:23.307Z,13.73
2018-11-25T09:34:57.582Z,14.00
2018-11-25T09:37:31.539Z,15.07
2018-11-25T09:40:22.662Z,13.03
2018-11-25T09:42:56.681Z,13.00
2018-11-25T09:45:30.659Z,13.93
2018-11-25T09:48:04.723Z,14.07
2018-11-25T09:50:38.671Z,14.10
2018-11-25T09:53:12.885Z,13.03
2018-11-25T09:55:47.013Z,12.83
2018-11-25T09:58:25.523Z,12.03
2018-11-25T10:00:55.775Z,12.83
2018-11-25T10:03:29.789Z,11.87
2018-11-25T10:06:03.793Z,12.10
2018-11-25T10:08:37.745Z,13.30
2018-11-25T10:11:11.829Z,12.43
2018-11-25T10:13:46.256Z,12.20
2018-11-25T10:16:20.239Z,11.87
2018-11-25T10:18:54.312Z,12.33
2018-11-25T10:21:28.180Z,11.73
2018-11-25T10:24:02.355Z,11.87
2018-11-25T10:26:36.309Z,12.33
2018-11-25T10:29:10.287Z,12.37
2018-11-25T10:31:44.379Z,11.50
2018-11-25T10:34:18.289Z,12.07
2018-11-25T10:36:52.168Z,13.00
2018-11-25T10:39:26.320Z,12.33
2018-11-25T10:42:00.408Z,11.83
2018-11-25T10:44:34.524Z,12.57
2018-11-25T10:47:08.644Z,12.87
2018-11-25T10:49:42.660Z,12.20
2018-11-25T10:52:16.668Z,12.43
2018-11-25T10:54:50.903Z,13.00
2018-11-25T10:57:25.078Z,12.83
2018-11-25T10:59:59.088Z,12.90
2018-11-25T11:02:38.763Z,13.87
2018-11-25T11:06:17.269Z,12.17
2018-11-25T11:08:51.790Z,12.40
2018-11-25T11:11:25.902Z,14.33
2018-11-25T11:14:00.470Z,13.70
2018-11-25T11:16:34.761Z,13.93
2018-11-25T11:19:08.818Z,14.70
2018-11-25T11:21:42.967Z,16.63
2018-11-25T11:24:16.779Z,16.63
2018-11-25T11:26:50.885Z,17.67
2018-11-25T11:29:25.109Z,16.23
2018-11-25T11:31:59.146Z,18.00
2018-11-25T11:34:33.298Z,16.47
2018-11-25T11:37:07.443Z,15.73
2018-11-25T11:39:41.458Z,15.03
2018-11-25T11:42:15.537Z,15.07
2018-11-25T11:44:49.462Z,14.97
2018-11-25T11:47:23.513Z,13.80
2018-11-25T11:49:57.629Z,14.57
2018-11-25T11:52:31.797Z,15.37
2018-11-25T11:55:07.625Z,15.70
2018-11-25T11:57:42.218Z,15.00
2018-11-25T12:00:24.594Z,14.50
2018-11-25T12:02:58.730Z,14.90
2018-11-25T12:05:32.909Z,16.70
2018-11-25T12:08:07.019Z,15.80
2018-11-25T12:10:41.192Z,15.97
2018-11-25T12:13:15.060Z,14.73
2018-11-25T12:15:49.198Z,16.37
2018-11-25T12:18:23.473Z,15.63
2018-11-25T12:20:58.027Z,15.43
2018-11-25T12:23:31.813Z,16.00
2018-11-25T12:26:06.167Z,15.73
2018-11-25T12:28:40.367Z,16.03
2018-11-25T12:31:14.327Z,17.27
2018-11-25T12:33:48.316Z,21.73
2018-11-25T12:36:22.593Z,20.30
2018-11-25T12:38:56.620Z,20.63
2018-11-25T12:41:31.043Z,22.23
2018-11-25T12:44:05.447Z,29.90
2018-11-25T12:46:39.502Z,20.10
2018-11-25T12:49:13.753Z,18.77
2018-11-25T12:51:47.768Z,18.07
2018-11-25T12:54:22.117Z,18.60
2018-11-25T12:56:56.188Z,18.87
2018-11-25T12:59:31.260Z,19.27
2018-11-25T13:02:05.758Z,19.37
2018-11-25T13:04:39.741Z,17.30
2018-11-25T13:07:13.960Z,17.53
2018-11-25T13:09:48.108Z,18.50
2018-11-25T13:12:22.264Z,17.27
2018-11-25T13:14:57.010Z,17.10
2018-11-25T13:17:31.195Z,16.93
2018-11-25T13:20:09.054Z,16.73
2018-11-25T13:22:43.090Z,16.23
2018-11-25T13:25:17.687Z,16.87
2018-11-25T13:27:51.824Z,16.80
2018-11-25T13:30:28.203Z,16.10
2018-11-25T13:33:03.292Z,17.13
2018-11-25T13:35:38.651Z,17.43
2018-11-25T13:38:13.225Z,15.73
2018-11-25T13:40:47.564Z,15.23
2018-11-25T13:43:21.802Z,15.60
2018-11-25T13:45:55.849Z,16.80
2018-11-25T13:48:30.026Z,16.83
2018-11-25T13:51:06.009Z,17.13
2018-11-25T13:53:40.032Z,19.30
2018-11-25T13:56:14.297Z,18.07
2018-11-25T13:58:48.239Z,16.93
2018-11-25T14:01:22.294Z,17.43
2018-11-25T14:03:56.668Z,16.83
2018-11-25T14:06:30.784Z,16.97
2018-11-25T14:09:10.179Z,16.20
2018-11-25T14:11:44.084Z,16.93
2018-11-25T14:14:18.229Z,17.20
2018-11-25T14:16:52.407Z,17.53
2018-11-25T14:19:26.797Z,18.13
2018-11-25T14:22:00.792Z,17.67
2018-11-25T14:24:34.764Z,17.17
2018-11-25T14:27:09.684Z,18.63
2018-11-25T14:29:43.690Z,15.63
2018-11-25T14:32:17.801Z,17.67
2018-11-25T14:34:52.208Z,17.83
2018-11-25T14:37:26.247Z,17.80
2018-11-25T14:40:00.488Z,16.93
2018-11-25T14:42:34.422Z,18.23
2018-11-25T14:45:12.123Z,17.73
2018-11-25T14:47:46.193Z,17.27
2018-11-25T14:50:20.624Z,16.90
2018-11-25T14:52:54.546Z,16.93
2018-11-25T14:55:28.697Z,17.30
2018-11-25T14:58:02.689Z,17.00
2018-11-25T15:00:36.812Z,17.70
2018-11-25T15:03:11.248Z,17.37
2018-11-25T15:05:46.710Z,16.87
2018-11-25T15:08:23.552Z,17.10
2018-11-25T15:10:57.677Z,17.17
2018-11-25T15:13:31.990Z,17.30
2018-11-25T15:16:08.508Z,16.93
2018-11-25T15:18:42.843Z,16.17
2018-11-25T15:21:17.109Z,17.10
2018-11-25T15:23:51.455Z,18.00
2018-11-25T15:26:25.393Z,16.87
2018-11-25T15:28:59.763Z,16.43
2018-11-25T15:31:33.787Z,17.93
2018-11-25T15:34:07.993Z,18.63
2018-11-25T15:36:41.829Z,19.13
2018-11-25T15:39:15.817Z,18.70
2018-11-25T15:41:49.829Z,18.40
2018-11-25T15:44:23.939Z,18.67
2018-11-25T15:46:58.775Z,21.03
2018-11-25T15:49:32.544Z,19.90
2018-11-25T15:52:06.699Z,18.90
2018-11-25T15:54:40.804Z,19.77
2018-11-25T15:57:15.470Z,20.40
2018-11-25T15:59:49.728Z,20.00
2018-11-25T16:02:23.831Z,20.63
2018-11-25T16:04:57.833Z,19.93
2018-11-25T16:07:32.068Z,19.23
2018-11-25T16:10:08.982Z,19.23
2018-11-25T16:12:44.558Z,20.87
2018-11-25T16:15:19.875Z,20.60
2018-11-25T16:17:53.889Z,21.60
2018-11-25T16:20:28.242Z,19.93
2018-11-25T16:23:05.259Z,20.70
2018-11-25T16:25:41.944Z,19.87
2018-11-25T16:28:41.640Z,20.93
2018-11-25T16:31:16.193Z,19.47
2018-11-25T16:33:50.325Z,20.60
2018-11-25T16:36:24.857Z,20.37
2018-11-25T16:38:59.047Z,19.40
2018-11-25T16:41:33.199Z,20.53
2018-11-25T16:44:07.114Z,20.00
2018-11-25T16:46:41.341Z,20.27
2018-11-25T16:49:15.207Z,19.40
2018-11-25T16:51:49.094Z,19.27
2018-11-25T16:54:23.370Z,19.23
2018-11-25T16:56:57.207Z,19.73
2018-11-25T16:59:31.529Z,20.33
2018-11-25T17:02:05.687Z,19.83
2018-11-25T17:04:39.888Z,18.63
2018-11-25T17:07:13.924Z,19.97
2018-11-25T17:09:48.032Z,19.23
2018-11-25T17:12:22.485Z,19.60
2018-11-25T17:14:56.874Z,20.13
2018-11-25T17:17:30.903Z,20.00
2018-11-25T17:20:05.738Z,20.53
2018-11-25T17:22:39.904Z,20.63
2018-11-25T17:25:14.448Z,21.20
2018-11-25T17:27:48.472Z,23.93
2018-11-25T17:30:22.999Z,23.60
2018-11-25T17:32:57.490Z,24.43
2018-11-25T17:35:32.086Z,25.10
2018-11-25T17:38:06.265Z,24.13
2018-11-25T17:40:40.228Z,23.70
2018-11-25T17:43:17.024Z,23.87
2018-11-25T17:45:51.048Z,22.33
2018-11-25T17:48:25.225Z,23.27
2018-11-25T17:50:59.259Z,22.77
2018-11-25T17:53:33.380Z,23.03
2018-11-25T17:56:07.692Z,22.47
2018-11-25T17:58:41.929Z,22.70
2018-11-25T18:01:16.147Z,23.23
2018-11-25T18:03:50.289Z,22.50
2018-11-25T18:06:24.787Z,22.17
2018-11-25T18:08:58.675Z,21.80
2018-11-25T18:11:32.900Z,21.83
2018-11-25T18:14:07.828Z,21.17
2018-11-25T18:16:42.033Z,21.40
2018-11-25T18:19:20.354Z,21.40
2018-11-25T18:22:06.187Z,21.07
2018-11-25T18:24:40.278Z,20.23
2018-11-25T18:27:14.285Z,20.37
2018-11-25T18:29:48.472Z,22.03
2018-11-25T18:32:22.771Z,19.93
2018-11-25T18:34:57.256Z,21.10
2018-11-25T18:37:31.372Z,19.73
2018-11-25T18:40:08.298Z,19.97
2018-11-25T18:42:43.217Z,20.07
2018-11-25T18:45:19.110Z,21.03
2018-11-25T18:47:56.477Z,21.17
2018-11-25T18:50:30.843Z,20.90
2018-11-25T18:53:06.113Z,21.00
2018-11-25T18:55:39.049Z,20.77
2018-11-25T18:58:13.444Z,21.03
2018-11-25T19:00:58.587Z,21.17
2018-11-25T19:03:33.171Z,20.03
2018-11-25T19:06:07.657Z,21.43
2018-11-25T19:08:41.812Z,20.83
2018-11-25T19:11:16.044Z,21.37
2018-11-25T19:13:50.468Z,21.00
2018-11-25T19:16:24.939Z,22.03
2018-11-25T19:18:59.248Z,21.33
2018-11-25T19:21:33.512Z,23.47
2018-11-25T19:24:07.973Z,22.40
2018-11-25T19:26:42.128Z,22.27
2018-11-25T19:29:16.243Z,21.80
2018-11-25T19:31:50.482Z,22.73
2018-11-25T19:34:24.359Z,23.43
2018-11-25T19:36:58.562Z,23.47
2018-11-25T19:39:32.809Z,23.60
2018-11-25T19:42:07.223Z,24.10
2018-11-25T19:44:41.152Z,24.03
2018-11-25T19:47:15.618Z,25.40
2018-11-25T19:49:49.756Z,24.17
2018-11-25T19:52:23.900Z,22.80
2018-11-25T19:54:58.095Z,25.80
2018-11-25T19:57:32.411Z,26.47
2018-11-25T20:00:11.567Z,24.33
2018-11-25T20:02:45.954Z,25.13
2018-11-25T20:05:20.524Z,25.93
2018-11-25T20:07:54.662Z,28.63
2018-11-25T20:10:28.860Z,26.97
2018-11-25T20:13:02.902Z,26.27
2018-11-25T20:15:37.329Z,26.13
2018-11-25T20:18:11.587Z,24.70
2018-11-25T20:20:51.663Z,25.77
2018-11-25T20:23:25.906Z,24.37
2018-11-25T20:26:00.189Z,26.30
2018-11-25T20:28:34.258Z,26.90
2018-11-25T20:31:08.491Z,25.07
2018-11-25T20:33:52.237Z,26.17
2018-11-25T20:36:23.298Z,27.10
2018-11-25T20:39:02.861Z,26.03
2018-11-25T20:41:37.188Z,25.80
2018-11-25T20:44:11.621Z,26.17
2018-11-25T20:46:51.433Z,25.13
2018-11-25T20:49:25.633Z,24.07
2018-11-25T20:52:05.406Z,25.30
2018-11-25T20:54:39.488Z,25.47
2018-11-25T20:57:13.870Z,23.63
2018-11-25T20:59:48.139Z,23.83
2018-11-25T21:02:28.875Z,25.07
2018-11-25T21:04:57.035Z,25.80
2018-11-25T21:07:31.168Z,24.73
2018-11-25T21:10:07.273Z,24.37
2018-11-25T21:12:42.229Z,24.07
2018-11-25T21:15:16.485Z,25.50
2018-11-25T21:17:50.653Z,25.53
2018-11-25T21:20:25.663Z,25.20
2018-11-25T21:23:00.043Z,25.07
2018-11-25T21:25:34.139Z,23.67
2018-11-25T21:28:08.202Z,24.53
2018-11-25T21:30:42.497Z,24.53
2018-11-25T21:33:16.200Z,24.53
2018-11-25T21:35:50.633Z,24.80
2018-11-25T21:38:24.732Z,24.60
2018-11-25T21:40:58.724Z,24.67
2018-11-25T21:43:33.027Z,24.03
2018-11-25T21:46:07.170Z,24.43
2018-11-25T21:48:41.426Z,23.57
2018-11-25T21:51:15.562Z,23.60
2018-11-25T21:53:49.548Z,23.50
2018-11-25T21:56:24.220Z,23.00
2018-11-25T21:58:58.011Z,22.53
2018-11-25T22:01:32.033Z,21.97
2018-11-25T22:04:06.265Z,22.37
2018-11-25T22:06:40.831Z,22.37
2018-11-25T22:09:15.049Z,23.10
2018-11-25T22:11:49.248Z,22.23
2018-11-25T22:14:23.698Z,22.47
2018-11-25T22:16:57.744Z,21.90
2018-11-25T22:19:31.942Z,23.00
2018-11-25T22:22:05.980Z,21.47
2018-11-25T22:24:40.587Z,22.30
2018-11-25T22:27:14.575Z,22.83
2018-11-25T22:29:48.830Z,23.00
2018-11-25T22:32:23.051Z,21.87
2018-11-25T22:34:56.973Z,22.90
2018-11-25T22:37:30.852Z,22.50
2018-11-25T22:40:06.758Z,23.30
2018-11-25T22:42:41.806Z,22.00
2018-11-25T22:45:17.171Z,21.90
2018-11-25T22:47:51.582Z,22.23
2018-11-25T22:50:27.623Z,22.23
2018-11-25T22:52:59.479Z,21.20
2018-11-25T22:55:40.263Z,22.40
2018-11-25T22:58:14.297Z,22.00
2018-11-25T23:00:51.046Z,22.80
2018-11-25T23:03:24.947Z,21.20
2018-11-25T23:06:11.212Z,22.57
2018-11-25T23:08:45.694Z,21.20
2018-11-25T23:11:19.838Z,22.43
2018-11-25T23:13:53.846Z,22.10
2018-11-25T23:16:27.888Z,22.67
2018-11-25T23:19:01.739Z,23.07
2018-11-25T23:21:35.831Z,20.63
2018-11-25T23:24:10.063Z,21.27
2018-11-25T23:26:50.831Z,22.43
2018-11-25T23:29:25.233Z,20.47
2018-11-25T23:31:59.297Z,22.80
2018-11-25T23:34:33.589Z,21.80
2018-11-25T23:37:08.660Z,23.57
2018-11-25T23:39:42.828Z,21.77
2018-11-25T23:42:16.886Z,21.10
2018-11-25T23:44:50.773Z,22.00
2018-11-25T23:47:24.798Z,21.93
2018-11-25T23:49:58.933Z,22.00
2018-11-25T23:52:33.078Z,21.10
2018-11-25T23:55:09.193Z,21.90
2018-11-25T23:57:43.166Z,23.20
